sensor_id;sensor_type;location;lat;lon;timestamp;P1;durP1;ratioP1;P2;durP2;ratioP2
38240;SDS011;24037;49.536;8.500;2022-10-16T00:01:08;6.57;;;3.95;;
38240;SDS011;24037;49.536;8.500;2022-10-16T00:03:36;6.50;;;3.42;;
38240;SDS011;24037;49.536;8.500;2022-10-16T00:06:03;6.30;;;3.97;;
38240;SDS011;24037;49.536;8.500;2022-10-16T00:08:30;7.78;;;3.90;;
38240;SDS011;24037;49.536;8.500;2022-10-16T00:11:04;6.35;;;3.85;;
38240;SDS011;24037;49.536;8.500;2022-10-16T00:13:35;6.82;;;3.92;;
38240;SDS011;24037;49.536;8.500;2022-10-16T00:16:03;6.05;;;3.95;;
38240;SDS011;24037;49.536;8.500;2022-10-16T00:18:30;6.47;;;4.00;;
38240;SDS011;24037;49.536;8.500;2022-10-16T00:21:01;12.23;;;4.47;;
38240;SDS011;24037;49.536;8.500;2022-10-16T00:23:35;9.68;;;3.88;;
38240;SDS011;24037;49.536;8.500;2022-10-16T00:26:03;6.57;;;4.15;;
38240;SDS011;24037;49.536;8.500;2022-10-16T00:28:31;6.32;;;3.60;;
38240;SDS011;24037;49.536;8.500;2022-10-16T00:30:58;5.78;;;3.30;;
38240;SDS011;24037;49.536;8.500;2022-10-16T00:33:24;7.22;;;3.50;;
38240;SDS011;24037;49.536;8.500;2022-10-16T00:35:50;8.45;;;3.55;;
38240;SDS011;24037;49.536;8.500;2022-10-16T00:38:17;8.40;;;4.00;;
38240;SDS011;24037;49.536;8.500;2022-10-16T00:40:43;5.78;;;3.70;;
38240;SDS011;24037;49.536;8.500;2022-10-16T00:43:12;11.40;;;4.15;;
38240;SDS011;24037;49.536;8.500;2022-10-16T00:45:58;8.60;;;5.03;;
38240;SDS011;24037;49.536;8.500;2022-10-16T00:48:26;6.50;;;3.92;;
38240;SDS011;24037;49.536;8.500;2022-10-16T00:50:52;6.47;;;3.88;;
38240;SDS011;24037;49.536;8.500;2022-10-16T00:53:19;7.75;;;4.35;;
38240;SDS011;24037;49.536;8.500;2022-10-16T00:55:45;6.57;;;3.80;;
38240;SDS011;24037;49.536;8.500;2022-10-16T00:58:11;6.00;;;3.65;;
38240;SDS011;24037;49.536;8.500;2022-10-16T01:00:38;10.10;;;5.03;;
38240;SDS011;24037;49.536;8.500;2022-10-16T01:03:21;12.10;;;4.47;;
38240;SDS011;24037;49.536;8.500;2022-10-16T01:06:21;9.77;;;3.47;;
38240;SDS011;24037;49.536;8.500;2022-10-16T01:11:41;7.72;;;4.35;;
38240;SDS011;24037;49.536;8.500;2022-10-16T01:14:12;8.90;;;4.15;;
38240;SDS011;24037;49.536;8.500;2022-10-16T01:16:48;9.38;;;4.22;;
38240;SDS011;24037;49.536;8.500;2022-10-16T01:19:31;6.82;;;4.20;;
38240;SDS011;24037;49.536;8.500;2022-10-16T01:22:39;7.13;;;4.00;;
38240;SDS011;24037;49.536;8.500;2022-10-16T01:25:25;10.25;;;4.57;;
38240;SDS011;24037;49.536;8.500;2022-10-16T01:28:03;8.52;;;4.30;;
38240;SDS011;24037;49.536;8.500;2022-10-16T01:33:02;10.48;;;4.88;;
38240;SDS011;24037;49.536;8.500;2022-10-16T01:35:36;9.32;;;5.15;;
38240;SDS011;24037;49.536;8.500;2022-10-16T01:38:07;8.73;;;5.28;;
38240;SDS011;24037;49.536;8.500;2022-10-16T01:40:42;7.75;;;5.05;;
38240;SDS011;24037;49.536;8.500;2022-10-16T01:43:12;7.72;;;4.45;;
38240;SDS011;24037;49.536;8.500;2022-10-16T01:45:44;9.50;;;5.35;;
38240;SDS011;24037;49.536;8.500;2022-10-16T01:48:16;11.52;;;5.05;;
38240;SDS011;24037;49.536;8.500;2022-10-16T01:50:44;8.25;;;4.68;;
38240;SDS011;24037;49.536;8.500;2022-10-16T01:53:21;10.77;;;5.57;;
38240;SDS011;24037;49.536;8.500;2022-10-16T01:55:52;10.82;;;5.10;;
38240;SDS011;24037;49.536;8.500;2022-10-16T01:58:21;11.30;;;5.63;;
38240;SDS011;24037;49.536;8.500;2022-10-16T02:00:49;11.63;;;5.90;;
38240;SDS011;24037;49.536;8.500;2022-10-16T02:03:18;13.05;;;5.55;;
38240;SDS011;24037;49.536;8.500;2022-10-16T02:05:46;11.73;;;5.57;;
38240;SDS011;24037;49.536;8.500;2022-10-16T02:08:16;11.55;;;4.93;;
38240;SDS011;24037;49.536;8.500;2022-10-16T02:10:43;11.60;;;5.70;;
38240;SDS011;24037;49.536;8.500;2022-10-16T02:13:10;7.88;;;4.90;;
38240;SDS011;24037;49.536;8.500;2022-10-16T02:15:41;9.65;;;5.20;;
38240;SDS011;24037;49.536;8.500;2022-10-16T02:18:07;12.48;;;5.57;;
38240;SDS011;24037;49.536;8.500;2022-10-16T02:20:45;8.90;;;5.20;;
38240;SDS011;24037;49.536;8.500;2022-10-16T02:23:19;9.80;;;5.30;;
38240;SDS011;24037;49.536;8.500;2022-10-16T02:26:09;10.30;;;4.57;;
38240;SDS011;24037;49.536;8.500;2022-10-16T02:31:08;9.20;;;4.57;;
38240;SDS011;24037;49.536;8.500;2022-10-16T02:33:37;13.60;;;5.57;;
38240;SDS011;24037;49.536;8.500;2022-10-16T02:36:05;8.77;;;5.18;;
38240;SDS011;24037;49.536;8.500;2022-10-16T02:38:32;9.70;;;4.90;;
38240;SDS011;24037;49.536;8.500;2022-10-16T02:40:59;10.00;;;4.88;;
38240;SDS011;24037;49.536;8.500;2022-10-16T02:43:26;8.48;;;4.53;;
38240;SDS011;24037;49.536;8.500;2022-10-16T02:45:52;7.57;;;4.93;;
38240;SDS011;24037;49.536;8.500;2022-10-16T02:48:19;7.88;;;4.68;;
38240;SDS011;24037;49.536;8.500;2022-10-16T02:50:45;14.73;;;4.45;;
38240;SDS011;24037;49.536;8.500;2022-10-16T02:53:11;8.38;;;4.57;;
38240;SDS011;24037;49.536;8.500;2022-10-16T02:55:37;9.25;;;4.50;;
38240;SDS011;24037;49.536;8.500;2022-10-16T02:58:03;8.23;;;4.82;;
38240;SDS011;24037;49.536;8.500;2022-10-16T03:00:29;10.23;;;5.03;;
38240;SDS011;24037;49.536;8.500;2022-10-16T03:02:55;11.20;;;6.68;;
38240;SDS011;24037;49.536;8.500;2022-10-16T03:05:22;11.98;;;5.55;;
38240;SDS011;24037;49.536;8.500;2022-10-16T03:07:48;16.95;;;6.57;;
38240;SDS011;24037;49.536;8.500;2022-10-16T03:10:14;11.38;;;6.70;;
38240;SDS011;24037;49.536;8.500;2022-10-16T03:12:40;14.82;;;6.00;;
38240;SDS011;24037;49.536;8.500;2022-10-16T03:15:06;12.90;;;6.40;;
38240;SDS011;24037;49.536;8.500;2022-10-16T03:17:33;13.68;;;6.60;;
38240;SDS011;24037;49.536;8.500;2022-10-16T03:20:00;15.18;;;6.25;;
38240;SDS011;24037;49.536;8.500;2022-10-16T03:22:27;11.80;;;6.15;;
38240;SDS011;24037;49.536;8.500;2022-10-16T03:24:53;12.27;;;5.90;;
38240;SDS011;24037;49.536;8.500;2022-10-16T03:27:19;11.68;;;6.10;;
38240;SDS011;24037;49.536;8.500;2022-10-16T03:29:45;9.82;;;5.88;;
38240;SDS011;24037;49.536;8.500;2022-10-16T03:32:11;14.18;;;5.90;;
38240;SDS011;24037;49.536;8.500;2022-10-16T03:34:37;12.77;;;5.68;;
38240;SDS011;24037;49.536;8.500;2022-10-16T03:37:04;10.63;;;5.55;;
38240;SDS011;24037;49.536;8.500;2022-10-16T03:39:30;10.35;;;4.75;;
38240;SDS011;24037;49.536;8.500;2022-10-16T03:41:56;12.98;;;5.45;;
38240;SDS011;24037;49.536;8.500;2022-10-16T03:44:22;7.47;;;4.47;;
38240;SDS011;24037;49.536;8.500;2022-10-16T03:46:48;8.40;;;4.90;;
38240;SDS011;24037;49.536;8.500;2022-10-16T03:49:14;8.30;;;4.18;;
38240;SDS011;24037;49.536;8.500;2022-10-16T03:51:40;7.70;;;4.32;;
38240;SDS011;24037;49.536;8.500;2022-10-16T03:54:07;7.93;;;4.43;;
38240;SDS011;24037;49.536;8.500;2022-10-16T03:56:33;8.68;;;4.80;;
38240;SDS011;24037;49.536;8.500;2022-10-16T03:58:59;8.23;;;4.57;;
38240;SDS011;24037;49.536;8.500;2022-10-16T04:01:25;11.73;;;4.80;;
38240;SDS011;24037;49.536;8.500;2022-10-16T04:03:51;11.73;;;4.88;;
38240;SDS011;24037;49.536;8.500;2022-10-16T04:06:17;8.85;;;4.35;;
38240;SDS011;24037;49.536;8.500;2022-10-16T04:08:44;7.50;;;4.30;;
38240;SDS011;24037;49.536;8.500;2022-10-16T04:11:10;8.70;;;4.18;;
38240;SDS011;24037;49.536;8.500;2022-10-16T04:13:36;10.05;;;4.43;;
38240;SDS011;24037;49.536;8.500;2022-10-16T04:16:02;8.63;;;3.75;;
38240;SDS011;24037;49.536;8.500;2022-10-16T04:18:29;9.85;;;4.50;;
38240;SDS011;24037;49.536;8.500;2022-10-16T04:20:55;6.03;;;3.80;;
38240;SDS011;24037;49.536;8.500;2022-10-16T04:23:21;8.13;;;4.10;;
38240;SDS011;24037;49.536;8.500;2022-10-16T04:25:48;5.95;;;3.92;;
38240;SDS011;24037;49.536;8.500;2022-10-16T04:28:15;7.50;;;4.28;;
38240;SDS011;24037;49.536;8.500;2022-10-16T04:30:41;7.68;;;3.60;;
38240;SDS011;24037;49.536;8.500;2022-10-16T04:33:08;6.97;;;4.05;;
38240;SDS011;24037;49.536;8.500;2022-10-16T04:35:35;12.93;;;3.70;;
38240;SDS011;24037;49.536;8.500;2022-10-16T04:38:01;7.10;;;3.75;;
38240;SDS011;24037;49.536;8.500;2022-10-16T04:40:27;10.20;;;4.03;;
38240;SDS011;24037;49.536;8.500;2022-10-16T04:42:54;5.25;;;3.35;;
38240;SDS011;24037;49.536;8.500;2022-10-16T04:45:20;11.70;;;4.13;;
38240;SDS011;24037;49.536;8.500;2022-10-16T04:47:46;7.63;;;4.72;;
38240;SDS011;24037;49.536;8.500;2022-10-16T04:50:12;7.43;;;3.63;;
38240;SDS011;24037;49.536;8.500;2022-10-16T04:52:38;6.55;;;4.15;;
38240;SDS011;24037;49.536;8.500;2022-10-16T04:55:05;7.50;;;3.67;;
38240;SDS011;24037;49.536;8.500;2022-10-16T04:57:31;6.85;;;3.83;;
38240;SDS011;24037;49.536;8.500;2022-10-16T04:59:58;7.85;;;4.10;;
38240;SDS011;24037;49.536;8.500;2022-10-16T05:02:25;9.32;;;4.03;;
38240;SDS011;24037;49.536;8.500;2022-10-16T05:04:51;10.23;;;4.03;;
38240;SDS011;24037;49.536;8.500;2022-10-16T05:07:17;6.95;;;3.67;;
38240;SDS011;24037;49.536;8.500;2022-10-16T05:09:44;7.03;;;4.20;;
38240;SDS011;24037;49.536;8.500;2022-10-16T05:12:10;8.18;;;4.47;;
38240;SDS011;24037;49.536;8.500;2022-10-16T05:14:36;10.23;;;4.25;;
38240;SDS011;24037;49.536;8.500;2022-10-16T05:17:03;10.65;;;4.43;;
38240;SDS011;24037;49.536;8.500;2022-10-16T05:19:29;9.25;;;4.18;;
38240;SDS011;24037;49.536;8.500;2022-10-16T05:21:55;6.70;;;4.00;;
38240;SDS011;24037;49.536;8.500;2022-10-16T05:24:21;9.57;;;4.35;;
38240;SDS011;24037;49.536;8.500;2022-10-16T05:26:47;7.05;;;3.78;;
38240;SDS011;24037;49.536;8.500;2022-10-16T05:29:13;9.45;;;4.47;;
38240;SDS011;24037;49.536;8.500;2022-10-16T05:31:40;7.90;;;3.90;;
38240;SDS011;24037;49.536;8.500;2022-10-16T05:34:06;9.50;;;4.00;;
38240;SDS011;24037;49.536;8.500;2022-10-16T05:36:32;7.07;;;3.45;;
38240;SDS011;24037;49.536;8.500;2022-10-16T05:38:58;10.02;;;4.80;;
38240;SDS011;24037;49.536;8.500;2022-10-16T05:41:24;7.18;;;3.67;;
38240;SDS011;24037;49.536;8.500;2022-10-16T05:43:52;7.35;;;3.53;;
38240;SDS011;24037;49.536;8.500;2022-10-16T05:46:18;7.60;;;4.60;;
38240;SDS011;24037;49.536;8.500;2022-10-16T05:48:44;6.97;;;4.13;;
38240;SDS011;24037;49.536;8.500;2022-10-16T05:51:11;6.45;;;3.78;;
38240;SDS011;24037;49.536;8.500;2022-10-16T05:53:39;7.15;;;3.78;;
38240;SDS011;24037;49.536;8.500;2022-10-16T05:56:06;9.35;;;4.55;;
38240;SDS011;24037;49.536;8.500;2022-10-16T05:58:35;7.78;;;4.43;;
38240;SDS011;24037;49.536;8.500;2022-10-16T06:01:12;7.28;;;4.50;;
38240;SDS011;24037;49.536;8.500;2022-10-16T06:03:40;15.50;;;5.10;;
38240;SDS011;24037;49.536;8.500;2022-10-16T06:06:25;8.18;;;4.97;;
38240;SDS011;24037;49.536;8.500;2022-10-16T06:08:53;9.77;;;5.45;;
38240;SDS011;24037;49.536;8.500;2022-10-16T06:11:22;16.88;;;5.90;;
38240;SDS011;24037;49.536;8.500;2022-10-16T06:13:53;10.45;;;5.47;;
38240;SDS011;24037;49.536;8.500;2022-10-16T06:16:22;9.27;;;5.35;;
38240;SDS011;24037;49.536;8.500;2022-10-16T06:18:50;11.77;;;5.45;;
38240;SDS011;24037;49.536;8.500;2022-10-16T06:21:18;11.18;;;5.40;;
38240;SDS011;24037;49.536;8.500;2022-10-16T06:23:47;13.45;;;6.45;;
38240;SDS011;24037;49.536;8.500;2022-10-16T06:26:14;12.57;;;6.03;;
38240;SDS011;24037;49.536;8.500;2022-10-16T06:28:42;13.00;;;5.65;;
38240;SDS011;24037;49.536;8.500;2022-10-16T06:31:09;11.40;;;6.10;;
38240;SDS011;24037;49.536;8.500;2022-10-16T06:33:36;11.32;;;5.97;;
38240;SDS011;24037;49.536;8.500;2022-10-16T06:36:04;15.10;;;6.18;;
38240;SDS011;24037;49.536;8.500;2022-10-16T06:38:41;12.30;;;5.90;;
38240;SDS011;24037;49.536;8.500;2022-10-16T06:41:09;12.30;;;5.53;;
38240;SDS011;24037;49.536;8.500;2022-10-16T06:43:38;9.63;;;5.77;;
38240;SDS011;24037;49.536;8.500;2022-10-16T06:46:05;10.48;;;5.57;;
38240;SDS011;24037;49.536;8.500;2022-10-16T06:51:06;11.35;;;5.82;;
38240;SDS011;24037;49.536;8.500;2022-10-16T06:53:35;10.82;;;5.50;;
38240;SDS011;24037;49.536;8.500;2022-10-16T06:56:09;14.05;;;5.78;;
38240;SDS011;24037;49.536;8.500;2022-10-16T06:58:36;11.32;;;6.03;;
38240;SDS011;24037;49.536;8.500;2022-10-16T07:01:03;13.48;;;5.28;;
38240;SDS011;24037;49.536;8.500;2022-10-16T07:03:30;14.55;;;4.65;;
38240;SDS011;24037;49.536;8.500;2022-10-16T07:05:57;8.45;;;4.75;;
38240;SDS011;24037;49.536;8.500;2022-10-16T07:08:26;14.63;;;5.15;;
38240;SDS011;24037;49.536;8.500;2022-10-16T07:11:02;11.30;;;5.00;;
38240;SDS011;24037;49.536;8.500;2022-10-16T07:13:37;10.73;;;6.05;;
38240;SDS011;24037;49.536;8.500;2022-10-16T07:16:05;8.52;;;4.97;;
38240;SDS011;24037;49.536;8.500;2022-10-16T07:18:32;7.50;;;4.40;;
38240;SDS011;24037;49.536;8.500;2022-10-16T07:21:13;8.40;;;3.95;;
38240;SDS011;24037;49.536;8.500;2022-10-16T07:23:49;7.28;;;4.80;;
38240;SDS011;24037;49.536;8.500;2022-10-16T07:26:16;11.65;;;7.72;;
38240;SDS011;24037;49.536;8.500;2022-10-16T07:28:43;9.80;;;8.18;;
38240;SDS011;24037;49.536;8.500;2022-10-16T07:31:10;9.18;;;6.50;;
38240;SDS011;24037;49.536;8.500;2022-10-16T07:33:39;9.82;;;6.43;;
38240;SDS011;24037;49.536;8.500;2022-10-16T07:36:08;8.93;;;5.20;;
38240;SDS011;24037;49.536;8.500;2022-10-16T07:38:34;8.18;;;5.07;;
38240;SDS011;24037;49.536;8.500;2022-10-16T07:41:02;9.15;;;4.78;;
38240;SDS011;24037;49.536;8.500;2022-10-16T07:43:30;5.25;;;2.85;;
38240;SDS011;24037;49.536;8.500;2022-10-16T07:45:57;8.90;;;3.88;;
38240;SDS011;24037;49.536;8.500;2022-10-16T07:48:25;5.38;;;3.45;;
38240;SDS011;24037;49.536;8.500;2022-10-16T07:50:56;9.25;;;4.10;;
38240;SDS011;24037;49.536;8.500;2022-10-16T07:53:23;8.98;;;4.45;;
38240;SDS011;24037;49.536;8.500;2022-10-16T07:55:49;7.65;;;3.92;;
38240;SDS011;24037;49.536;8.500;2022-10-16T07:58:16;8.48;;;3.60;;
38240;SDS011;24037;49.536;8.500;2022-10-16T08:00:42;7.28;;;3.47;;
38240;SDS011;24037;49.536;8.500;2022-10-16T08:03:08;8.23;;;3.45;;
38240;SDS011;24037;49.536;8.500;2022-10-16T08:05:34;8.68;;;3.97;;
38240;SDS011;24037;49.536;8.500;2022-10-16T08:08:01;7.10;;;3.15;;
38240;SDS011;24037;49.536;8.500;2022-10-16T08:10:28;7.43;;;3.22;;
38240;SDS011;24037;49.536;8.500;2022-10-16T08:12:54;5.10;;;3.38;;
38240;SDS011;24037;49.536;8.500;2022-10-16T08:15:21;8.57;;;3.10;;
38240;SDS011;24037;49.536;8.500;2022-10-16T08:17:54;6.40;;;3.13;;
38240;SDS011;24037;49.536;8.500;2022-10-16T08:20:21;6.60;;;3.25;;
38240;SDS011;24037;49.536;8.500;2022-10-16T08:22:47;5.53;;;3.13;;
38240;SDS011;24037;49.536;8.500;2022-10-16T08:25:13;8.98;;;3.83;;
38240;SDS011;24037;49.536;8.500;2022-10-16T08:27:39;5.55;;;3.13;;
38240;SDS011;24037;49.536;8.500;2022-10-16T08:30:06;11.15;;;3.83;;
38240;SDS011;24037;49.536;8.500;2022-10-16T08:32:33;4.55;;;2.92;;
38240;SDS011;24037;49.536;8.500;2022-10-16T08:34:59;7.68;;;3.65;;
38240;SDS011;24037;49.536;8.500;2022-10-16T08:37:29;6.85;;;4.25;;
38240;SDS011;24037;49.536;8.500;2022-10-16T08:39:56;6.45;;;4.18;;
38240;SDS011;24037;49.536;8.500;2022-10-16T08:50:25;9.02;;;5.03;;
38240;SDS011;24037;49.536;8.500;2022-10-16T08:52:53;10.50;;;4.95;;
38240;SDS011;24037;49.536;8.500;2022-10-16T08:55:41;10.23;;;4.65;;
38240;SDS011;24037;49.536;8.500;2022-10-16T08:58:12;5.45;;;2.78;;
38240;SDS011;24037;49.536;8.500;2022-10-16T09:00:40;4.90;;;2.17;;
38240;SDS011;24037;49.536;8.500;2022-10-16T09:11:22;5.63;;;2.35;;
38240;SDS011;24037;49.536;8.500;2022-10-16T09:14:10;5.57;;;2.85;;
38240;SDS011;24037;49.536;8.500;2022-10-16T09:16:57;10.00;;;3.25;;
38240;SDS011;24037;49.536;8.500;2022-10-16T09:19:38;6.80;;;3.53;;
38240;SDS011;24037;49.536;8.500;2022-10-16T09:22:15;6.70;;;4.10;;
38240;SDS011;24037;49.536;8.500;2022-10-16T09:24:43;6.43;;;4.10;;
38240;SDS011;24037;49.536;8.500;2022-10-16T09:27:13;7.80;;;4.38;;
38240;SDS011;24037;49.536;8.500;2022-10-16T09:29:40;8.25;;;4.38;;
38240;SDS011;24037;49.536;8.500;2022-10-16T09:32:11;10.15;;;4.30;;
38240;SDS011;24037;49.536;8.500;2022-10-16T09:34:47;8.80;;;4.75;;
38240;SDS011;24037;49.536;8.500;2022-10-16T09:37:17;7.90;;;3.90;;
38240;SDS011;24037;49.536;8.500;2022-10-16T09:39:49;6.15;;;3.53;;
38240;SDS011;24037;49.536;8.500;2022-10-16T09:42:34;7.80;;;4.18;;
38240;SDS011;24037;49.536;8.500;2022-10-16T09:45:02;5.80;;;3.53;;
38240;SDS011;24037;49.536;8.500;2022-10-16T09:47:30;5.18;;;3.50;;
38240;SDS011;24037;49.536;8.500;2022-10-16T09:49:58;4.00;;;2.72;;
38240;SDS011;24037;49.536;8.500;2022-10-16T09:52:28;7.00;;;3.47;;
38240;SDS011;24037;49.536;8.500;2022-10-16T09:54:56;5.15;;;2.90;;
38240;SDS011;24037;49.536;8.500;2022-10-16T09:57:51;5.75;;;3.50;;
38240;SDS011;24037;49.536;8.500;2022-10-16T10:00:19;6.40;;;3.22;;
38240;SDS011;24037;49.536;8.500;2022-10-16T10:02:47;6.43;;;3.40;;
38240;SDS011;24037;49.536;8.500;2022-10-16T10:05:24;4.82;;;2.92;;
38240;SDS011;24037;49.536;8.500;2022-10-16T10:07:58;7.68;;;3.33;;
38240;SDS011;24037;49.536;8.500;2022-10-16T10:10:29;7.32;;;3.05;;
38240;SDS011;24037;49.536;8.500;2022-10-16T10:12:57;5.20;;;2.63;;
38240;SDS011;24037;49.536;8.500;2022-10-16T10:15:24;6.00;;;2.85;;
38240;SDS011;24037;49.536;8.500;2022-10-16T10:17:58;5.80;;;3.17;;
38240;SDS011;24037;49.536;8.500;2022-10-16T10:20:29;6.97;;;2.80;;
38240;SDS011;24037;49.536;8.500;2022-10-16T10:23:00;3.97;;;2.33;;
38240;SDS011;24037;49.536;8.500;2022-10-16T10:26:31;6.35;;;2.72;;
38240;SDS011;24037;49.536;8.500;2022-10-16T10:36:43;5.90;;;3.08;;
38240;SDS011;24037;49.536;8.500;2022-10-16T10:47:55;7.20;;;2.72;;
38240;SDS011;24037;49.536;8.500;2022-10-16T10:53:13;4.18;;;2.45;;
38240;SDS011;24037;49.536;8.500;2022-10-16T10:56:11;4.28;;;2.50;;
38240;SDS011;24037;49.536;8.500;2022-10-16T11:04:40;3.63;;;1.85;;
38240;SDS011;24037;49.536;8.500;2022-10-16T11:07:39;2.30;;;1.70;;
38240;SDS011;24037;49.536;8.500;2022-10-16T11:10:18;5.72;;;2.90;;
38240;SDS011;24037;49.536;8.500;2022-10-16T11:12:50;2.75;;;1.38;;
38240;SDS011;24037;49.536;8.500;2022-10-16T11:15:35;2.97;;;1.70;;
38240;SDS011;24037;49.536;8.500;2022-10-16T11:18:11;4.70;;;1.88;;
38240;SDS011;24037;49.536;8.500;2022-10-16T11:20:54;3.83;;;1.77;;
38240;SDS011;24037;49.536;8.500;2022-10-16T11:23:29;2.80;;;1.23;;
38240;SDS011;24037;49.536;8.500;2022-10-16T11:26:21;2.90;;;1.38;;
38240;SDS011;24037;49.536;8.500;2022-10-16T11:28:52;4.72;;;1.55;;
38240;SDS011;24037;49.536;8.500;2022-10-16T11:31:37;2.88;;;1.27;;
38240;SDS011;24037;49.536;8.500;2022-10-16T11:39:34;3.22;;;1.20;;
38240;SDS011;24037;49.536;8.500;2022-10-16T11:42:16;3.70;;;1.52;;
38240;SDS011;24037;49.536;8.500;2022-10-16T11:45:20;6.38;;;1.30;;
38240;SDS011;24037;49.536;8.500;2022-10-16T11:48:20;5.35;;;1.92;;
38240;SDS011;24037;49.536;8.500;2022-10-16T11:50:48;3.30;;;1.65;;
38240;SDS011;24037;49.536;8.500;2022-10-16T11:55:59;2.50;;;1.70;;
38240;SDS011;24037;49.536;8.500;2022-10-16T11:58:45;2.40;;;1.50;;
38240;SDS011;24037;49.536;8.500;2022-10-16T12:01:33;3.17;;;1.67;;
38240;SDS011;24037;49.536;8.500;2022-10-16T12:04:14;3.40;;;1.50;;
38240;SDS011;24037;49.536;8.500;2022-10-16T12:06:44;2.80;;;1.55;;
38240;SDS011;24037;49.536;8.500;2022-10-16T12:09:36;3.75;;;1.58;;
38240;SDS011;24037;49.536;8.500;2022-10-16T12:12:23;4.43;;;1.48;;
38240;SDS011;24037;49.536;8.500;2022-10-16T12:17:46;3.92;;;1.60;;
38240;SDS011;24037;49.536;8.500;2022-10-16T12:20:19;2.13;;;1.42;;
38240;SDS011;24037;49.536;8.500;2022-10-16T12:22:50;2.58;;;1.45;;
38240;SDS011;24037;49.536;8.500;2022-10-16T12:25:36;2.22;;;1.33;;
38240;SDS011;24037;49.536;8.500;2022-10-16T12:30:40;2.17;;;1.38;;
38240;SDS011;24037;49.536;8.500;2022-10-16T12:33:28;4.50;;;1.45;;
38240;SDS011;24037;49.536;8.500;2022-10-16T12:35:57;2.67;;;1.48;;
38240;SDS011;24037;49.536;8.500;2022-10-16T12:38:26;2.78;;;1.17;;
38240;SDS011;24037;49.536;8.500;2022-10-16T12:40:59;3.05;;;1.58;;
38240;SDS011;24037;49.536;8.500;2022-10-16T12:43:41;3.08;;;1.08;;
38240;SDS011;24037;49.536;8.500;2022-10-16T12:48:35;4.85;;;1.50;;
38240;SDS011;24037;49.536;8.500;2022-10-16T12:54:02;4.97;;;1.95;;
38240;SDS011;24037;49.536;8.500;2022-10-16T13:13:50;3.70;;;2.42;;
38240;SDS011;24037;49.536;8.500;2022-10-16T13:16:50;5.15;;;1.80;;
38240;SDS011;24037;49.536;8.500;2022-10-16T13:24:36;2.88;;;1.50;;
38240;SDS011;24037;49.536;8.500;2022-10-16T13:30:30;7.80;;;1.92;;
38240;SDS011;24037;49.536;8.500;2022-10-16T13:35:51;5.00;;;2.30;;
38240;SDS011;24037;49.536;8.500;2022-10-16T13:38:20;4.30;;;1.77;;
38240;SDS011;24037;49.536;8.500;2022-10-16T13:40:53;6.20;;;1.87;;
38240;SDS011;24037;49.536;8.500;2022-10-16T13:43:34;2.83;;;1.40;;
38240;SDS011;24037;49.536;8.500;2022-10-16T13:46:11;4.13;;;2.28;;
38240;SDS011;24037;49.536;8.500;2022-10-16T13:48:40;5.20;;;2.88;;
38240;SDS011;24037;49.536;8.500;2022-10-16T13:51:14;5.50;;;2.05;;
38240;SDS011;24037;49.536;8.500;2022-10-16T13:53:42;5.45;;;4.20;;
38240;SDS011;24037;49.536;8.500;2022-10-16T13:56:14;26.95;;;24.58;;
38240;SDS011;24037;49.536;8.500;2022-10-16T13:58:41;10.63;;;9.48;;
38240;SDS011;24037;49.536;8.500;2022-10-16T14:01:16;10.30;;;9.30;;
38240;SDS011;24037;49.536;8.500;2022-10-16T14:03:48;3.55;;;1.65;;
38240;SDS011;24037;49.536;8.500;2022-10-16T14:06:19;4.65;;;2.20;;
38240;SDS011;24037;49.536;8.500;2022-10-16T14:08:52;6.30;;;1.95;;
38240;SDS011;24037;49.536;8.500;2022-10-16T14:11:25;3.00;;;2.20;;
38240;SDS011;24037;49.536;8.500;2022-10-16T14:13:51;5.18;;;3.55;;
38240;SDS011;24037;49.536;8.500;2022-10-16T14:16:22;12.48;;;11.20;;
38240;SDS011;24037;49.536;8.500;2022-10-16T14:19:01;5.25;;;2.17;;
38240;SDS011;24037;49.536;8.500;2022-10-16T14:21:32;5.95;;;3.75;;
38240;SDS011;24037;49.536;8.500;2022-10-16T14:23:59;6.63;;;2.35;;
38240;SDS011;24037;49.536;8.500;2022-10-16T14:26:47;4.32;;;1.92;;
38240;SDS011;24037;49.536;8.500;2022-10-16T14:29:15;4.07;;;1.63;;
38240;SDS011;24037;49.536;8.500;2022-10-16T14:31:57;3.83;;;1.80;;
38240;SDS011;24037;49.536;8.500;2022-10-16T14:34:26;3.60;;;1.50;;
38240;SDS011;24037;49.536;8.500;2022-10-16T14:36:59;9.13;;;3.65;;
38240;SDS011;24037;49.536;8.500;2022-10-16T14:39:32;6.63;;;3.75;;
38240;SDS011;24037;49.536;8.500;2022-10-16T14:41:59;3.83;;;2.85;;
38240;SDS011;24037;49.536;8.500;2022-10-16T14:44:27;5.78;;;2.50;;
38240;SDS011;24037;49.536;8.500;2022-10-16T14:46:56;6.25;;;2.55;;
38240;SDS011;24037;49.536;8.500;2022-10-16T14:49:23;3.80;;;1.73;;
38240;SDS011;24037;49.536;8.500;2022-10-16T14:51:49;5.10;;;1.70;;
38240;SDS011;24037;49.536;8.500;2022-10-16T14:54:18;4.15;;;1.88;;
38240;SDS011;24037;49.536;8.500;2022-10-16T14:56:45;3.33;;;1.98;;
38240;SDS011;24037;49.536;8.500;2022-10-16T15:01:54;3.85;;;2.15;;
38240;SDS011;24037;49.536;8.500;2022-10-16T15:04:24;3.92;;;1.80;;
38240;SDS011;24037;49.536;8.500;2022-10-16T15:06:50;2.75;;;1.35;;
38240;SDS011;24037;49.536;8.500;2022-10-16T15:09:16;5.10;;;1.55;;
38240;SDS011;24037;49.536;8.500;2022-10-16T15:11:42;4.20;;;1.58;;
38240;SDS011;24037;49.536;8.500;2022-10-16T15:14:12;3.08;;;1.50;;
38240;SDS011;24037;49.536;8.500;2022-10-16T15:16:39;2.40;;;1.48;;
38240;SDS011;24037;49.536;8.500;2022-10-16T15:19:05;6.18;;;1.80;;
38240;SDS011;24037;49.536;8.500;2022-10-16T15:21:32;4.22;;;1.50;;
38240;SDS011;24037;49.536;8.500;2022-10-16T15:23:58;3.22;;;1.73;;
38240;SDS011;24037;49.536;8.500;2022-10-16T15:26:26;3.75;;;1.40;;
38240;SDS011;24037;49.536;8.500;2022-10-16T15:28:53;3.20;;;1.67;;
38240;SDS011;24037;49.536;8.500;2022-10-16T15:31:20;3.35;;;1.83;;
38240;SDS011;24037;49.536;8.500;2022-10-16T15:33:49;3.65;;;1.65;;
38240;SDS011;24037;49.536;8.500;2022-10-16T15:36:25;4.15;;;1.90;;
38240;SDS011;24037;49.536;8.500;2022-10-16T15:38:53;2.70;;;1.15;;
38240;SDS011;24037;49.536;8.500;2022-10-16T15:41:19;5.78;;;2.38;;
38240;SDS011;24037;49.536;8.500;2022-10-16T15:43:47;3.70;;;1.60;;
38240;SDS011;24037;49.536;8.500;2022-10-16T15:46:15;1.73;;;1.40;;
38240;SDS011;24037;49.536;8.500;2022-10-16T15:48:48;5.32;;;1.48;;
38240;SDS011;24037;49.536;8.500;2022-10-16T15:51:15;6.93;;;2.30;;
38240;SDS011;24037;49.536;8.500;2022-10-16T15:53:43;4.80;;;1.88;;
38240;SDS011;24037;49.536;8.500;2022-10-16T15:56:12;3.88;;;2.00;;
38240;SDS011;24037;49.536;8.500;2022-10-16T15:58:41;3.95;;;1.77;;
38240;SDS011;24037;49.536;8.500;2022-10-16T16:01:07;4.15;;;1.73;;
38240;SDS011;24037;49.536;8.500;2022-10-16T16:03:35;3.05;;;1.73;;
38240;SDS011;24037;49.536;8.500;2022-10-16T16:06:06;3.72;;;1.92;;
38240;SDS011;24037;49.536;8.500;2022-10-16T16:08:34;6.20;;;1.50;;
38240;SDS011;24037;49.536;8.500;2022-10-16T16:11:05;4.60;;;1.60;;
38240;SDS011;24037;49.536;8.500;2022-10-16T16:13:31;3.40;;;1.60;;
38240;SDS011;24037;49.536;8.500;2022-10-16T16:15:58;4.10;;;2.10;;
38240;SDS011;24037;49.536;8.500;2022-10-16T16:18:25;6.90;;;3.72;;
38240;SDS011;24037;49.536;8.500;2022-10-16T16:20:51;5.63;;;3.00;;
38240;SDS011;24037;49.536;8.500;2022-10-16T16:23:18;6.53;;;3.10;;
38240;SDS011;24037;49.536;8.500;2022-10-16T16:25:45;6.35;;;2.67;;
38240;SDS011;24037;49.536;8.500;2022-10-16T16:28:36;5.63;;;3.85;;
38240;SDS011;24037;49.536;8.500;2022-10-16T16:31:03;7.05;;;4.40;;
38240;SDS011;24037;49.536;8.500;2022-10-16T16:33:29;7.70;;;2.90;;
38240;SDS011;24037;49.536;8.500;2022-10-16T16:36:00;9.48;;;3.67;;
38240;SDS011;24037;49.536;8.500;2022-10-16T16:38:29;10.15;;;4.85;;
38240;SDS011;24037;49.536;8.500;2022-10-16T16:40:55;8.68;;;4.97;;
38240;SDS011;24037;49.536;8.500;2022-10-16T16:43:22;19.15;;;6.40;;
38240;SDS011;24037;49.536;8.500;2022-10-16T16:45:50;10.00;;;4.75;;
38240;SDS011;24037;49.536;8.500;2022-10-16T16:48:17;12.07;;;6.65;;